KGUS/GUS METAR and TAF weather

Enter ICAO airport designator
Station Type Date Time Source
KGUS METAR 2021/08/02 00:56 UTC NOAA

KGUS 020056Z AUTO 35008KT 10SM CLR 20/11 A3005 RMK AO2 SLP176 T01980105 $


Station Type Date Time Source
KGUS Decoded METAR 2021/08/02 00:56 UTC NOAA

Grissom Air Force Base / Peru, IN, United States (KGUS) 40-39N 086-09W
Aug 01, 2021 - 08:56 PM EDT / 2021.08.02 0056 UTC
Wind: from the N (350 degrees) at 9 MPH (8 KT):0
Visibility: 10 mile(s):0
Sky conditions: clear
Temperature: 67.6 F (19.8 C)
Dew Point: 50.9 F (10.5 C)
Relative Humidity: 54%
Pressure (altimeter): 30.05 in. Hg (1017 hPa)
ob: KGUS 020056Z AUTO 35008KT 10SM CLR 20/11 A3005 RMK AO2 SLP176 T01980105
cycle: 1

Station Type Date Time Source
KGUS TAF 2021/08/01 21:03 UTC NOAA

TAF KGUS 012100Z 0121/0303 35012G18KT 9999 SCT050 QNH3002INS
BECMG 0200/0201 34009KT 9999 SKC QNH3005INS
BECMG 0207/0208 VRB06KT 8000 BR FEW011 FEW018 BKN026 QNH3010INS
BECMG 0214/0215 VRB06KT 9999 NSW FEW040 QNH3007INS TX23/0222Z TN13/0211Z LAST NO
AMDS AFT 0203 NEXT 0213

Example: see airport list